Rivesville, WV (26588)

10:06 PM EST on January 25, 2015 (GMT -0500)
N8TJD's WX Station. Stony Rd/Pinchgut Hollow. | Change Station
CLOSE
Current Station
Personal Weather Station
Location: Fairmont, WV
Elevation: 1283 ft
Nearby Weather Stations
Active Advisory: Winter Weather Advisory Active Notice: Public Information Statement

Elev 1283 ft 39.46 °N, 80.12 °W | Updated 2 seconds ago

Rain
Rain
40.3 °F
Feels Like 40 °F
N
0.0
Wind Variable Wind from NE
Gusts 0.0 mph

Today
High -- | Low -- °F
--% Chance of Precip.
Yesterday
High -- | Low -- °F
Precip. -- in
7:33 AM 5:32 PM
Waxing Crescent, 38% visible
Pressure 29.78 in
Visibility 1.8 miles
Clouds Few 200 ft
Mostly Cloudy 5000 ft
Overcast 7500 ft
Windchill 40 °F
Dew Point 40 °F
Humidity 100%
Rainfall 0.00 in
Snow Depth Not available.
UV 0 out of 12
Pollen .10 out of 12
Air Quality Not available.
Flu Activity Not available.
METAR KMGW 260253Z 35004KT 1 3/4SM BR FEW002 BKN050 OVC075 02/00 A2975 RMK AO2 SLP082 60000 T00170000 58007

More Conditions Fewer Conditions

Pressure 29.78 in
Visibility 1.8 miles
Clouds Few 200 ft
Mostly Cloudy 5000 ft
Overcast 7500 ft
Windchill 40 °F
Dew Point 40 °F
Humidity 100%
Rainfall 0.00 in
Snow Depth Not available.
UV 0 out of 12
Pollen .10 out of 12
Air Quality Not available.
Flu Activity Not available.
METAR KMGW 260253Z 35004KT 1 3/4SM BR FEW002 BKN050 OVC075 02/00 A2975 RMK AO2 SLP082 60000 T00170000 58007

More Conditions Fewer Conditions

10-Day Weather Forecast

Almanac

Astronomy

Jan. 25, 2015 Rise Set
Actual Time
Civil Twilight
Nautical Twilight
Astronomical Twilight
Moon
Length of Visible Light
Length of Day
Tomorrow will be .
, % of the Moon is Illuminated

Today's Extremes

State Highs State Lows

Community

WunderPhotos

Upload Photos

1,790,085 photos uploaded!

WunderBlogs® & News

Nearby

Air Quality

  Air Quality AQ Index Pollutant
Not available.

Snow Depth

Station Depth Elevation

Earthquake Activity

City Distance Mag. Time & Date
Minimum magnitude displayed is 2.5.

Coastal Water Temperatures

Place Temperature

Nearby Weather Stations